Time;durP1;ratioP1;P1;durP2;ratioP2;P2;SDS_P1;SDS_P2;PMS_P1;PMS_P2;Temp;Humidity;BMP_temperature;BMP_pressure;BME280_temperature;BME280_humidity;BME280_pressure;Samples;Min_cycle;Max_cycle;Signal;HPM_P1;HPM_P2
2021/05/11 00:01:44;;;;;;;3.70;2.67;;;14.50;99.90;;;;;;5056956;28;20021;-72
2021/05/11 00:04:13;;;;;;;4.90;2.60;;;14.50;99.90;;;;;;5057441;28;20025;-72
2021/05/11 00:06:40;;;;;;;4.03;2.70;;;14.50;99.90;;;;;;5055880;28;20108;-72
2021/05/11 00:09:08;;;;;;;5.80;2.50;;;14.50;99.90;;;;;;5055976;28;20025;-72
2021/05/11 00:11:36;;;;;;;4.07;2.63;;;14.40;99.90;;;;;;5055000;28;20021;-72
2021/05/11 00:14:06;;;;;;;4.60;2.63;;;14.40;99.90;;;;;;5055230;28;20021;-72
2021/05/11 00:16:35;;;;;;;3.13;2.42;;;14.40;99.90;;;;;;5055714;28;20021;-72
2021/05/11 00:19:06;;;;;;;6.43;2.80;;;14.40;99.90;;;;;;5054980;28;20025;-72
2021/05/11 00:21:34;;;;;;;4.00;3.03;;;14.40;99.90;;;;;;5056112;28;20103;-72
2021/05/11 00:24:02;;;;;;;3.83;2.53;;;14.40;99.90;;;;;;5055893;28;20037;-72
2021/05/11 00:26:32;;;;;;;9.07;3.30;;;14.40;99.90;;;;;;5054792;28;20555;-73
2021/05/11 00:29:01;;;;;;;3.95;2.60;;;14.40;99.90;;;;;;5055486;28;20032;-72
2021/05/11 00:31:28;;;;;;;3.85;2.30;;;14.30;99.90;;;;;;5055609;28;20024;-73
2021/05/11 00:33:57;;;;;;;3.17;2.47;;;14.20;99.90;;;;;;5057176;28;20029;-72
2021/05/11 00:36:25;;;;;;;4.45;2.75;;;14.20;99.90;;;;;;5056658;28;20100;-72
2021/05/11 00:38:54;;;;;;;6.45;3.50;;;14.20;99.90;;;;;;5056632;28;20028;-73
2021/05/11 00:41:21;;;;;;;3.85;2.78;;;14.30;99.90;;;;;;5056741;28;20075;-72
2021/05/11 00:43:49;;;;;;;5.47;3.10;;;14.20;99.90;;;;;;5055177;28;20075;-72
2021/05/11 00:46:18;;;;;;;4.88;2.58;;;14.20;99.90;;;;;;5057002;28;20025;-72
2021/05/11 00:48:45;;;;;;;2.83;2.35;;;14.20;99.90;;;;;;5059186;28;20029;-73
2021/05/11 00:51:14;;;;;;;5.95;3.53;;;14.10;99.90;;;;;;5059554;28;20028;-72
2021/05/11 00:53:44;;;;;;;7.65;3.60;;;14.10;99.90;;;;;;5059103;28;20017;-72
2021/05/11 00:56:13;;;;;;;4.70;3.28;;;14.10;99.90;;;;;;5059297;28;20021;-72
2021/05/11 00:58:41;;;;;;;6.68;4.00;;;14.10;99.90;;;;;;5059335;28;20021;-72
2021/05/11 01:01:09;;;;;;;5.60;3.97;;;14.10;99.90;;;;;;5059507;28;20056;-72
2021/05/11 01:03:38;;;;;;;5.32;3.45;;;14.10;99.90;;;;;;5060612;28;20053;-72
2021/05/11 01:06:06;;;;;;;4.40;2.97;;;14.10;99.90;;;;;;5060134;28;20317;-72
2021/05/11 01:08:33;;;;;;;6.35;3.15;;;14.10;99.90;;;;;;5060325;28;20024;-73
2021/05/11 01:11:01;;;;;;;5.05;3.55;;;14.10;99.90;;;;;;5058703;28;20031;-72
2021/05/11 01:13:28;;;;;;;5.60;3.60;;;14.10;99.90;;;;;;5060139;28;20021;-72
2021/05/11 01:15:56;;;;;;;4.75;3.40;;;14.10;99.90;;;;;;5059803;28;20040;-72
2021/05/11 01:18:31;;;;;;;4.38;2.67;;;14.10;99.90;;;;;;5057488;28;20017;-72
2021/05/11 01:21:15;;;;;;;4.22;3.13;;;14.10;99.90;;;;;;5058668;28;20021;-72
2021/05/11 01:26:59;;;;;;;5.82;2.53;;;14.10;99.90;;;;;;5052451;28;20061;-72
2021/05/11 01:29:37;;;;;;;4.32;2.65;;;14.00;99.90;;;;;;5058201;28;20040;-72
2021/05/11 01:32:29;;;;;;;4.07;2.90;;;14.00;99.90;;;;;;5058241;28;20037;-72
2021/05/11 01:46:30;;;;;;;5.68;4.15;;;13.90;99.90;;;;;;5059346;28;20298;-72
2021/05/11 02:18:17;;;;;;;9.10;3.53;;;14.10;99.90;;;;;;5058356;28;20036;-72
2021/05/11 02:23:35;;;;;;;4.30;3.13;;;14.10;99.90;;;;;;5057330;28;20047;-73
2021/05/11 02:26:04;;;;;;;9.15;4.30;;;14.10;99.90;;;;;;5057402;28;20036;-72
2021/05/11 02:28:32;;;;;;;6.45;3.28;;;14.10;99.90;;;;;;5057367;28;20105;-72
2021/05/11 02:30:59;;;;;;;6.68;3.78;;;14.10;99.90;;;;;;5056254;28;20029;-72
2021/05/11 02:33:27;;;;;;;5.25;3.40;;;14.10;99.90;;;;;;5057129;28;20400;-72
2021/05/11 02:35:54;;;;;;;4.88;3.63;;;14.10;99.90;;;;;;5057716;28;20025;-72
2021/05/11 02:38:23;;;;;;;5.03;3.58;;;14.10;99.90;;;;;;5056261;28;20020;-73
2021/05/11 02:40:51;;;;;;;7.15;3.78;;;14.10;99.90;;;;;;5058793;28;20047;-72
2021/05/11 02:43:25;;;;;;;6.97;4.15;;;14.10;99.90;;;;;;5058565;28;20028;-72
2021/05/11 02:45:54;;;;;;;5.53;3.50;;;14.10;99.90;;;;;;5057993;28;20052;-72
2021/05/11 02:48:22;;;;;;;5.28;3.38;;;14.10;99.90;;;;;;5057718;28;20376;-72
2021/05/11 02:50:50;;;;;;;5.40;3.38;;;14.10;99.90;;;;;;5058113;28;20389;-72
2021/05/11 02:53:18;;;;;;;7.20;4.00;;;14.10;99.90;;;;;;5057996;28;20064;-72
2021/05/11 02:55:46;;;;;;;5.65;3.55;;;14.10;99.90;;;;;;5056954;28;20041;-72
2021/05/11 02:58:14;;;;;;;4.45;3.25;;;14.10;99.90;;;;;;5056779;28;20025;-72
2021/05/11 03:00:42;;;;;;;5.28;3.97;;;14.10;99.90;;;;;;5057353;28;20306;-72
2021/05/11 03:03:10;;;;;;;4.47;2.95;;;14.10;99.90;;;;;;5056972;28;20029;-72
2021/05/11 03:05:38;;;;;;;7.75;3.75;;;14.10;99.90;;;;;;5056707;28;20061;-73
2021/05/11 03:08:06;;;;;;;4.65;3.38;;;14.10;99.90;;;;;;5056684;28;20052;-73
2021/05/11 03:10:34;;;;;;;5.53;3.20;;;14.00;99.90;;;;;;5056618;28;20032;-72
2021/05/11 03:13:01;;;;;;;5.68;3.75;;;14.00;99.90;;;;;;5057226;28;20033;-72
2021/05/11 03:15:29;;;;;;;5.40;3.30;;;14.00;99.90;;;;;;5057806;28;20067;-72
2021/05/11 03:17:56;;;;;;;5.45;3.78;;;14.00;99.90;;;;;;5057384;28;20359;-72
2021/05/11 03:20:24;;;;;;;10.50;4.38;;;14.00;99.90;;;;;;5057593;28;20017;-72
2021/05/11 03:22:51;;;;;;;5.88;4.20;;;14.00;99.90;;;;;;5057175;28;20045;-72
2021/05/11 03:25:20;;;;;;;5.32;3.35;;;14.00;99.90;;;;;;5057891;28;20048;-72
2021/05/11 03:27:48;;;;;;;6.53;3.10;;;14.00;99.90;;;;;;5057025;28;20099;-72
2021/05/11 03:30:15;;;;;;;3.88;2.58;;;14.00;99.90;;;;;;5056779;28;20502;-72
2021/05/11 03:32:43;;;;;;;6.75;3.47;;;13.80;99.90;;;;;;5055072;28;20033;-72
2021/05/11 03:35:12;;;;;;;5.70;3.03;;;13.70;99.90;;;;;;5055221;28;20179;-72
2021/05/11 03:37:39;;;;;;;5.15;3.92;;;13.70;99.90;;;;;;5056391;28;20405;-72
2021/05/11 03:40:09;;;;;;;7.47;3.72;;;13.60;99.90;;;;;;5056206;28;20036;-72
2021/05/11 03:42:41;;;;;;;5.63;3.25;;;13.60;99.90;;;;;;5056266;28;20029;-72
2021/05/11 03:45:12;;;;;;;7.93;4.05;;;13.60;99.90;;;;;;5056193;28;20035;-72
2021/05/11 03:47:47;;;;;;;7.07;4.43;;;13.70;99.90;;;;;;5055915;28;20025;-72
2021/05/11 03:50:16;;;;;;;6.88;3.88;;;13.70;99.90;;;;;;5056011;28;20063;-72
2021/05/11 03:52:44;;;;;;;6.10;4.07;;;13.70;99.90;;;;;;5057040;28;20044;-72
2021/05/11 03:55:12;;;;;;;6.30;4.07;;;13.70;99.90;;;;;;5056182;28;20028;-72
2021/05/11 03:57:39;;;;;;;9.77;3.90;;;13.70;99.90;;;;;;5057617;28;20013;-72
2021/05/11 04:00:07;;;;;;;5.28;3.78;;;13.70;99.90;;;;;;5056874;28;20045;-72
2021/05/11 04:02:35;;;;;;;6.82;3.97;;;13.70;99.90;;;;;;5056056;28;20021;-72
2021/05/11 04:05:08;;;;;;;6.53;4.25;;;13.70;99.90;;;;;;5056420;28;20468;-72
2021/05/11 04:07:39;;;;;;;6.10;4.07;;;13.70;99.90;;;;;;5055967;28;20029;-73
2021/05/11 04:10:22;;;;;;;5.22;3.80;;;13.80;99.90;;;;;;5055950;28;20032;-72
2021/05/11 04:18:22;;;;;;;5.60;3.57;;;13.80;99.90;;;;;;5056130;28;20094;-73
2021/05/11 04:20:50;;;;;;;7.68;4.05;;;13.80;99.90;;;;;;5056922;28;20701;-72
2021/05/11 04:23:18;;;;;;;4.85;3.45;;;13.80;99.90;;;;;;5060345;28;20079;-72
2021/05/11 04:25:46;;;;;;;4.82;3.42;;;13.80;99.90;;;;;;5060783;28;20103;-72
2021/05/11 04:28:14;;;;;;;5.45;3.05;;;13.80;99.90;;;;;;5061057;28;20025;-73
2021/05/11 04:30:41;;;;;;;4.38;3.20;;;13.80;99.90;;;;;;5059500;28;20375;-73
2021/05/11 04:33:09;;;;;;;4.25;3.05;;;13.80;99.90;;;;;;5059214;28;20025;-72
2021/05/11 04:35:37;;;;;;;4.88;3.15;;;13.80;99.90;;;;;;5060441;28;20025;-72
2021/05/11 04:38:04;;;;;;;5.03;3.45;;;13.80;99.90;;;;;;5059466;28;20021;-73
2021/05/11 04:40:31;;;;;;;4.75;3.33;;;13.80;99.90;;;;;;5058381;28;20025;-72
2021/05/11 04:42:59;;;;;;;5.38;3.30;;;13.80;99.90;;;;;;5059369;28;20032;-72
2021/05/11 04:45:31;;;;;;;6.65;3.72;;;13.80;99.90;;;;;;5059496;28;20053;-72
2021/05/11 04:47:59;;;;;;;4.50;3.33;;;13.90;99.90;;;;;;5059745;28;20401;-75
2021/05/11 04:50:30;;;;;;;5.40;3.90;;;13.90;99.90;;;;;;5059169;28;20324;-75
2021/05/11 04:52:58;;;;;;;4.63;3.08;;;13.90;99.90;;;;;;5059276;28;20031;-72
2021/05/11 04:55:26;;;;;;;5.95;3.90;;;14.00;99.90;;;;;;5060583;28;20043;-72
2021/05/11 04:57:53;;;;;;;5.18;3.47;;;14.00;99.90;;;;;;5060819;28;20286;-72
2021/05/11 05:00:21;;;;;;;3.60;2.60;;;14.10;99.90;;;;;;5058845;28;20017;-72
2021/05/11 05:02:52;;;;;;;4.22;3.03;;;14.10;99.90;;;;;;5058819;28;20021;-72
2021/05/11 05:05:20;;;;;;;5.20;2.70;;;14.10;99.90;;;;;;5060259;28;20029;-72
2021/05/11 05:07:48;;;;;;;3.13;2.17;;;14.20;99.90;;;;;;5060378;28;20025;-73
2021/05/11 05:10:15;;;;;;;3.47;2.50;;;14.20;99.90;;;;;;5059217;28;20100;-72
2021/05/11 05:12:46;;;;;;;4.35;2.83;;;14.20;99.90;;;;;;5058674;28;20059;-73
2021/05/11 05:15:16;;;;;;;3.03;2.25;;;14.30;99.90;;;;;;5058965;28;20100;-72
2021/05/11 05:17:43;;;;;;;3.38;2.00;;;14.30;99.90;;;;;;5058737;28;20021;-73
2021/05/11 05:20:11;;;;;;;2.83;2.17;;;14.30;99.90;;;;;;5058743;28;20017;-74
2021/05/11 05:22:41;;;;;;;2.60;1.90;;;14.40;99.90;;;;;;5057285;28;20336;-75
2021/05/11 05:25:15;;;;;;;4.25;2.25;;;14.40;99.90;;;;;;5059259;28;20021;-75
2021/05/11 05:27:51;;;;;;;3.20;2.03;;;14.40;99.90;;;;;;5059206;28;20023;-75
2021/05/11 05:30:19;;;;;;;3.53;2.03;;;14.40;99.90;;;;;;5059385;28;20421;-74
2021/05/11 05:32:48;;;;;;;3.75;1.70;;;14.40;99.90;;;;;;5058793;28;20075;-75
2021/05/11 05:35:16;;;;;;;2.90;2.10;;;14.40;99.90;;;;;;5059520;28;20421;-74
2021/05/11 05:37:44;;;;;;;3.80;1.88;;;14.40;99.90;;;;;;5059801;28;20025;-75
2021/05/11 05:40:13;;;;;;;2.17;1.67;;;14.50;99.90;;;;;;5059218;28;20051;-74
2021/05/11 05:42:41;;;;;;;3.55;1.80;;;14.50;99.90;;;;;;5058835;28;20024;-74
2021/05/11 05:45:09;;;;;;;3.10;1.90;;;14.50;99.90;;;;;;5058532;28;20071;-75
2021/05/11 05:47:37;;;;;;;2.75;1.75;;;14.40;99.90;;;;;;5058066;28;20025;-73
2021/05/11 05:50:08;;;;;;;2.90;1.60;;;14.50;99.90;;;;;;5056991;28;20029;-74
2021/05/11 05:52:39;;;;;;;2.85;1.92;;;14.50;99.90;;;;;;5057878;28;20033;-73
2021/05/11 05:55:08;;;;;;;3.50;1.63;;;14.60;99.90;;;;;;5058439;28;20029;-73
2021/05/11 05:57:35;;;;;;;3.55;2.20;;;14.70;99.90;;;;;;5058409;28;20412;-76
2021/05/11 06:00:04;;;;;;;3.08;2.00;;;14.70;99.90;;;;;;5057462;28;20021;-75
2021/05/11 06:02:34;;;;;;;2.88;1.75;;;14.80;99.90;;;;;;5058734;28;20021;-74
2021/05/11 06:05:02;;;;;;;3.40;2.30;;;14.90;99.90;;;;;;5058737;28;20108;-75
2021/05/11 06:07:30;;;;;;;3.10;2.05;;;15.00;99.90;;;;;;5057569;28;20032;-75
2021/05/11 06:09:58;;;;;;;2.40;1.70;;;15.20;99.90;;;;;;5058678;28;20021;-74
2021/05/11 06:12:35;;;;;;;2.85;2.10;;;15.30;99.90;;;;;;5057331;28;20025;-74
2021/05/11 06:17:52;;;;;;;2.22;1.55;;;15.50;99.90;;;;;;5057439;28;20048;-74
2021/05/11 06:20:20;;;;;;;2.30;1.85;;;15.60;99.90;;;;;;5058052;28;20401;-75
2021/05/11 06:22:48;;;;;;;3.45;1.77;;;15.70;99.90;;;;;;5056156;28;20359;-74
2021/05/11 06:25:16;;;;;;;5.13;2.10;;;15.80;99.90;;;;;;5057550;28;20432;-74
2021/05/11 06:27:44;;;;;;;4.82;1.90;;;15.90;99.90;;;;;;5057305;28;20116;-73
2021/05/11 06:30:12;;;;;;;3.47;1.83;;;16.00;99.90;;;;;;5058408;28;20080;-72
2021/05/11 06:32:40;;;;;;;5.10;2.10;;;16.00;99.90;;;;;;5058638;28;20416;-74
2021/05/11 06:35:08;;;;;;;2.90;1.75;;;16.10;99.90;;;;;;5058624;28;20324;-74
2021/05/11 06:37:36;;;;;;;2.47;1.77;;;16.10;99.90;;;;;;5058181;28;20028;-73
2021/05/11 06:40:05;;;;;;;3.72;1.60;;;16.20;99.90;;;;;;5058182;28;20017;-75
2021/05/11 06:42:36;;;;;;;2.75;1.75;;;16.20;99.90;;;;;;5058369;28;20044;-74
2021/05/11 06:48:06;;;;;;;3.55;2.30;;;16.20;99.90;;;;;;5057274;28;20115;-73
2021/05/11 06:50:43;;;;;;;2.30;1.42;;;16.30;99.90;;;;;;5057084;28;20100;-73
2021/05/11 06:53:12;;;;;;;2.90;1.95;;;16.30;99.90;;;;;;5057181;28;20151;-73
2021/05/11 06:55:43;;;;;;;3.35;2.15;;;16.20;99.90;;;;;;5057088;28;20089;-75
2021/05/11 06:58:11;;;;;;;5.47;2.95;;;16.20;99.90;;;;;;5055805;28;20027;-75
2021/05/11 07:00:44;;;;;;;4.93;2.80;;;16.10;99.90;;;;;;5056901;28;20055;-74
2021/05/11 07:03:12;;;;;;;3.80;2.72;;;16.00;99.90;;;;;;5057678;28;20044;-73
2021/05/11 07:05:43;;;;;;;3.95;2.35;;;15.90;99.90;;;;;;5056759;28;20044;-75
2021/05/11 07:08:16;;;;;;;5.55;3.38;;;15.90;99.90;;;;;;5058058;28;20095;-75
2021/05/11 07:10:51;;;;;;;5.85;3.20;;;15.80;99.90;;;;;;5057839;28;20021;-75
2021/05/11 07:13:20;;;;;;;4.40;3.40;;;15.70;99.90;;;;;;5056298;28;20024;-74
2021/05/11 07:15:49;;;;;;;5.57;3.58;;;15.70;99.90;;;;;;5057796;28;20021;-75
2021/05/11 07:18:18;;;;;;;5.00;3.60;;;15.60;99.90;;;;;;5056734;28;20080;-75
2021/05/11 07:20:48;;;;;;;6.97;4.20;;;15.50;99.90;;;;;;5055449;28;20022;-74
2021/05/11 07:23:20;;;;;;;4.85;3.75;;;15.30;99.90;;;;;;5056268;28;20049;-74
2021/05/11 07:26:24;;;;;;;5.47;3.60;;;15.20;99.90;;;;;;5056270;28;20100;-75
2021/05/11 07:29:07;;;;;;;4.57;3.85;;;15.10;99.90;;;;;;5056253;28;20054;-88
2021/05/11 07:31:36;;;;;;;6.45;4.95;;;15.10;99.90;;;;;;5055135;28;20064;-73
2021/05/11 07:34:05;;;;;;;7.53;4.55;;;15.20;99.90;;;;;;5057582;28;20360;-73
2021/05/11 07:36:33;;;;;;;6.05;4.47;;;15.30;99.90;;;;;;5057280;28;20466;-77
2021/05/11 07:39:01;;;;;;;6.97;4.72;;;15.40;99.90;;;;;;5057675;28;20029;-75
2021/05/11 07:41:29;;;;;;;5.13;4.30;;;15.70;99.90;;;;;;5057394;28;20021;-75
2021/05/11 07:43:58;;;;;;;5.80;3.70;;;15.90;99.90;;;;;;5056167;28;20021;-77
2021/05/11 07:49:20;;;;;;;5.30;3.33;;;16.20;99.90;;;;;;5056319;28;20025;-74
2021/05/11 08:05:14;;;;;;;4.45;2.50;;;17.10;99.90;;;;;;5061000;28;20032;-71
2021/05/11 08:15:58;;;;;;;3.43;2.27;;;17.50;99.90;;;;;;5061184;28;20056;-73
2021/05/11 08:29:14;;;;;;;6.30;2.63;;;17.80;99.90;;;;;;5060141;28;20036;-72
2021/05/11 08:31:43;;;;;;;5.30;2.70;;;17.80;99.90;;;;;;5058466;28;20313;-72
2021/05/11 08:34:11;;;;;;;3.67;2.15;;;17.90;99.90;;;;;;5058520;28;20111;-72
2021/05/11 08:36:39;;;;;;;4.25;2.00;;;17.90;99.90;;;;;;5060231;28;20028;-72
2021/05/11 08:39:06;;;;;;;6.88;3.88;;;17.90;99.90;;;;;;5060398;28;20021;-72
2021/05/11 08:41:34;;;;;;;3.33;1.83;;;18.00;99.90;;;;;;5059255;28;20048;-73
2021/05/11 08:44:03;;;;;;;6.43;4.05;;;18.10;99.90;;;;;;5060480;28;20472;-74
2021/05/11 08:46:30;;;;;;;3.67;1.90;;;18.00;99.90;;;;;;5060125;28;20098;-74
2021/05/11 08:49:03;;;;;;;4.05;1.98;;;18.00;99.90;;;;;;5059138;28;20087;-74
2021/05/11 08:51:37;;;;;;;3.88;1.80;;;17.90;99.90;;;;;;5059946;28;20022;-74
2021/05/11 08:54:24;;;;;;;2.70;1.80;;;17.90;99.90;;;;;;5060167;28;20024;-74
2021/05/11 09:00:13;;;;;;;3.65;1.92;;;17.80;99.90;;;;;;5059457;28;20325;-74
2021/05/11 09:08:46;;;;;;;4.78;2.15;;;18.10;99.90;;;;;;5058468;28;20489;-73
2021/05/11 09:25:24;;;;;;;3.03;1.70;;;18.20;99.90;;;;;;5059186;28;20075;-72
2021/05/11 09:28:02;;;;;;;4.28;1.83;;;18.30;99.90;;;;;;5059012;28;20215;-72
2021/05/11 10:43:39;;;;;;;3.15;2.45;;;18.00;99.90;;;;;;5057529;28;20344;-68
2021/05/11 10:48:29;;;;;;;3.28;2.30;;;17.90;99.90;;;;;;5057523;28;20021;-70
2021/05/11 10:50:59;;;;;;;4.13;2.70;;;17.90;99.90;;;;;;5057115;28;20108;-70
2021/05/11 10:53:58;;;;;;;3.22;2.38;;;17.90;99.90;;;;;;5058277;28;20413;-69
2021/05/11 10:59:22;;;;;;;4.25;2.70;;;18.00;99.90;;;;;;5057820;28;20025;-69
2021/05/11 11:01:56;;;;;;;2.97;2.20;;;18.10;99.90;;;;;;5058151;28;20029;-70
2021/05/11 11:04:29;;;;;;;3.38;2.45;;;18.20;99.90;;;;;;5057456;28;20025;-68
2021/05/11 11:07:06;;;;;;;3.17;2.33;;;18.20;99.90;;;;;;5056858;28;20025;-68
2021/05/11 11:09:36;;;;;;;5.03;2.50;;;18.20;99.90;;;;;;5056884;28;20455;-69
2021/05/11 11:12:07;;;;;;;3.78;2.47;;;18.20;99.90;;;;;;5057023;28;20061;-69
2021/05/11 11:14:42;;;;;;;4.10;2.25;;;18.30;99.90;;;;;;5055584;28;20021;-69
2021/05/11 11:17:15;;;;;;;2.72;2.03;;;18.30;99.90;;;;;;5056452;28;20013;-69
2021/05/11 11:19:55;;;;;;;2.67;1.60;;;18.40;99.90;;;;;;5039617;28;20059;-68
2021/05/11 11:25:17;;;;;;;2.33;1.73;;;18.60;99.90;;;;;;5057786;28;20092;-68
2021/05/11 11:27:49;;;;;;;3.53;2.20;;;18.70;99.90;;;;;;5057517;28;20352;-69
2021/05/11 11:30:18;;;;;;;6.07;2.17;;;18.80;99.90;;;;;;5057651;28;20099;-68
2021/05/11 11:32:46;;;;;;;4.75;2.05;;;18.90;99.90;;;;;;5057434;28;20025;-68
2021/05/11 11:35:14;;;;;;;3.97;2.00;;;18.80;99.90;;;;;;5057118;28;20074;-70
2021/05/11 11:37:42;;;;;;;9.43;2.00;;;18.70;99.90;;;;;;5056848;28;20032;-69
2021/05/11 11:40:13;;;;;;;3.88;2.00;;;18.70;99.90;;;;;;5056783;28;20096;-69
2021/05/11 11:42:42;;;;;;;2.85;1.90;;;18.60;99.90;;;;;;5056867;28;20021;-72
2021/05/11 11:45:30;;;;;;;3.05;1.75;;;18.60;99.90;;;;;;5056280;28;20024;-68
2021/05/11 11:48:01;;;;;;;5.47;2.08;;;18.40;99.90;;;;;;5056424;28;20074;-72
2021/05/11 11:50:34;;;;;;;4.13;2.00;;;18.30;99.90;;;;;;5056449;28;20363;-71
2021/05/11 11:53:19;;;;;;;3.95;2.13;;;18.20;99.90;;;;;;5056013;28;20095;-70
2021/05/11 11:56:21;;;;;;;4.60;1.73;;;18.20;99.90;;;;;;5056156;28;20063;-72
2021/05/11 11:58:47;;;;;;;3.80;2.20;;;18.30;99.90;;;;;;5056873;28;20029;-71
2021/05/11 12:01:17;;;;;;;3.15;1.67;;;18.40;99.90;;;;;;5057775;28;20059;-71
2021/05/11 12:03:44;;;;;;;3.40;1.80;;;18.50;99.90;;;;;;5055957;28;20163;-72
2021/05/11 12:06:17;;;;;;;4.82;2.17;;;18.50;99.90;;;;;;5055977;28;20025;-71
2021/05/11 12:08:50;;;;;;;3.13;2.03;;;18.50;99.90;;;;;;5057058;28;20028;-71
2021/05/11 12:11:19;;;;;;;2.95;1.77;;;18.40;99.90;;;;;;5056928;28;20029;-71
2021/05/11 12:13:50;;;;;;;2.90;2.05;;;18.40;99.90;;;;;;5057195;28;20029;-71
2021/05/11 12:16:20;;;;;;;4.65;2.00;;;18.30;99.90;;;;;;5056425;28;20025;-71
2021/05/11 12:19:19;;;;;;;5.25;2.35;;;18.20;99.90;;;;;;5055826;28;20036;-72
2021/05/11 12:22:04;;;;;;;5.43;2.38;;;18.10;99.90;;;;;;5055774;28;20321;-71
2021/05/11 12:24:37;;;;;;;4.25;2.70;;;18.00;99.90;;;;;;5055803;28;20517;-75
2021/05/11 12:27:38;;;;;;;3.70;2.33;;;17.90;99.90;;;;;;5056091;28;20029;-75
2021/05/11 12:30:08;;;;;;;3.85;2.30;;;17.70;99.90;;;;;;5056138;28;20029;-73
2021/05/11 12:32:36;;;;;;;3.50;2.15;;;17.70;99.90;;;;;;5056355;28;20036;-71
2021/05/11 12:35:13;;;;;;;5.72;2.38;;;17.60;99.90;;;;;;5056904;28;20421;-71
2021/05/11 12:37:52;;;;;;;3.55;2.08;;;17.50;99.90;;;;;;5056730;28;20033;-71
2021/05/11 12:40:32;;;;;;;5.20;2.03;;;17.40;99.90;;;;;;5057306;28;20096;-72
2021/05/11 12:43:02;;;;;;;6.50;2.92;;;17.40;99.90;;;;;;5058552;28;20056;-71
2021/05/11 12:45:35;;;;;;;6.30;2.70;;;17.40;99.90;;;;;;5061068;28;20309;-71
2021/05/11 12:48:07;;;;;;;5.13;2.40;;;17.50;99.90;;;;;;5059505;28;20033;-72
2021/05/11 12:50:44;;;;;;;5.25;2.20;;;17.50;99.90;;;;;;5059783;28;20104;-71
2021/05/11 12:53:41;;;;;;;3.33;2.10;;;17.60;99.90;;;;;;5059708;28;20025;-71
2021/05/11 12:56:47;;;;;;;6.03;2.33;;;17.60;99.90;;;;;;5059291;28;20028;-71
2021/05/11 12:59:53;;;;;;;4.72;2.10;;;17.60;99.90;;;;;;5059400;28;20021;-71
2021/05/11 13:27:51;;;;;;;5.47;3.30;;;16.70;99.90;;;;;;5038903;28;20056;-71
2021/05/11 13:33:11;;;;;;;3.70;2.65;;;16.70;99.90;;;;;;5038413;28;20072;-68
2021/05/11 13:35:39;;;;;;;4.80;2.90;;;16.70;99.90;;;;;;5038510;28;20017;-71
2021/05/11 13:38:07;;;;;;;4.90;3.53;;;16.80;99.90;;;;;;5038482;28;20333;-71
2021/05/11 13:40:34;;;;;;;5.03;2.50;;;16.80;99.90;;;;;;5038124;28;20076;-72
2021/05/11 13:43:02;;;;;;;6.45;3.55;;;16.90;99.90;;;;;;5039903;28;20034;-72
2021/05/11 13:45:30;;;;;;;5.28;2.50;;;16.80;99.90;;;;;;5039172;28;20322;-72
2021/05/11 13:48:02;;;;;;;3.95;2.40;;;16.80;99.90;;;;;;5039093;28;20032;-71
2021/05/11 13:53:21;;;;;;;7.78;3.15;;;16.70;99.90;;;;;;5027485;28;20029;-72
2021/05/11 14:03:48;;;;;;;4.18;2.65;;;16.70;99.90;;;;;;5038150;28;20468;-74
2021/05/11 14:06:16;;;;;;;4.63;2.63;;;16.90;99.90;;;;;;5038069;28;20037;-73
2021/05/11 14:08:44;;;;;;;3.83;2.67;;;17.00;99.90;;;;;;5037924;28;20022;-74
2021/05/11 14:11:12;;;;;;;4.15;2.42;;;17.10;99.90;;;;;;5038110;28;20017;-72
2021/05/11 14:13:40;;;;;;;4.78;2.40;;;17.30;99.90;;;;;;5038455;28;20026;-72
2021/05/11 14:16:08;;;;;;;4.63;2.17;;;17.30;99.90;;;;;;5039267;28;20013;-73
2021/05/11 14:18:36;;;;;;;4.88;2.20;;;17.40;99.90;;;;;;5056259;28;20021;-73
2021/05/11 14:21:05;;;;;;;5.38;2.25;;;17.60;99.90;;;;;;5058770;28;20318;-73
2021/05/11 14:23:33;;;;;;;5.03;2.63;;;17.70;99.90;;;;;;5058259;28;20103;-73
2021/05/11 14:26:01;;;;;;;3.25;2.30;;;17.90;99.90;;;;;;5058812;28;20024;-73
2021/05/11 14:28:29;;;;;;;5.72;2.45;;;18.00;99.90;;;;;;5058271;28;20028;-73
2021/05/11 14:30:56;;;;;;;5.25;1.92;;;18.10;99.90;;;;;;5057950;28;20021;-72
2021/05/11 14:33:25;;;;;;;4.03;2.42;;;18.10;99.90;;;;;;5056118;28;20033;-72
2021/05/11 14:35:53;;;;;;;3.75;2.38;;;18.20;99.90;;;;;;5057231;28;20375;-72
2021/05/11 14:38:21;;;;;;;5.28;2.75;;;18.10;99.90;;;;;;5057705;28;20021;-73
2021/05/11 14:40:49;;;;;;;11.02;2.47;;;18.10;99.90;;;;;;5057194;28;20013;-73
2021/05/11 14:43:16;;;;;;;5.85;2.45;;;18.10;99.90;;;;;;5057329;28;20032;-75
2021/05/11 14:45:43;;;;;;;3.92;2.28;;;18.10;99.90;;;;;;5060044;28;20021;-77
2021/05/11 14:48:10;;;;;;;3.08;2.30;;;18.00;99.90;;;;;;5058591;28;20029;-74
2021/05/11 14:50:38;;;;;;;4.45;2.67;;;18.00;99.90;;;;;;5056902;28;20025;-73
2021/05/11 14:53:06;;;;;;;5.90;2.35;;;17.90;99.90;;;;;;5057838;28;20024;-74
2021/05/11 14:55:33;;;;;;;5.15;3.28;;;17.80;99.90;;;;;;5056844;28;20412;-73
2021/05/11 14:58:01;;;;;;;5.93;2.90;;;17.80;99.90;;;;;;5058177;28;20025;-75
2021/05/11 15:00:30;;;;;;;10.27;3.60;;;17.80;99.90;;;;;;5057758;28;20021;-75
2021/05/11 15:02:59;;;;;;;3.72;2.88;;;17.70;99.90;;;;;;5057160;28;20020;-75
2021/05/11 15:05:27;;;;;;;4.82;3.53;;;17.70;99.90;;;;;;5056608;28;20055;-76
2021/05/11 15:07:54;;;;;;;5.55;3.58;;;17.60;99.90;;;;;;5055665;28;20329;-75
2021/05/11 15:10:22;;;;;;;5.28;3.42;;;17.40;99.90;;;;;;5056606;28;20029;-77
2021/05/11 15:12:51;;;;;;;11.32;3.50;;;17.30;99.90;;;;;;5056534;28;20021;-77
2021/05/11 15:15:20;;;;;;;5.10;3.40;;;17.20;99.90;;;;;;5055479;28;20021;-75
2021/05/11 15:20:20;;;;;;;5.72;3.88;;;16.80;99.90;;;;;;5056599;28;20024;-75
2021/05/11 15:22:52;;;;;;;5.07;4.00;;;16.60;99.90;;;;;;5056034;28;20041;-74
2021/05/11 15:25:23;;;;;;;5.18;3.70;;;16.40;99.90;;;;;;5057402;28;20068;-73
2021/05/11 15:27:53;;;;;;;7.82;3.65;;;16.30;99.90;;;;;;5057932;28;20052;-73
2021/05/11 15:30:24;;;;;;;5.45;4.25;;;16.10;99.90;;;;;;5057294;28;20028;-74
2021/05/11 15:32:58;;;;;;;6.25;3.72;;;16.10;99.90;;;;;;5057143;28;20060;-74
2021/05/11 15:35:31;;;;;;;5.25;3.60;;;16.00;99.90;;;;;;5056202;28;20048;-74
2021/05/11 15:38:01;;;;;;;9.32;4.50;;;15.90;99.90;;;;;;5056810;28;20017;-74
2021/05/11 15:40:35;;;;;;;7.25;4.05;;;15.90;99.90;;;;;;5056336;28;20013;-73
2021/05/11 15:43:05;;;;;;;6.10;3.30;;;15.90;99.90;;;;;;5057048;28;20151;-74
2021/05/11 15:45:34;;;;;;;7.22;3.80;;;15.90;99.90;;;;;;5055224;28;20035;-74
2021/05/11 15:48:04;;;;;;;6.75;4.15;;;15.80;99.90;;;;;;5056305;28;20029;-73
2021/05/11 15:50:34;;;;;;;9.45;3.78;;;15.80;99.90;;;;;;5056326;28;20029;-73
2021/05/11 15:53:06;;;;;;;6.72;4.45;;;15.70;99.90;;;;;;5055117;28;20104;-73
2021/05/11 15:55:36;;;;;;;9.25;4.45;;;15.70;99.90;;;;;;5055423;28;20021;-75
2021/05/11 15:58:03;;;;;;;6.40;3.15;;;15.70;99.90;;;;;;5057419;28;20496;-74
2021/05/11 16:00:31;;;;;;;5.05;3.63;;;15.70;99.90;;;;;;5057138;28;20021;-74
2021/05/11 16:03:03;;;;;;;6.45;4.13;;;15.70;99.90;;;;;;5056967;28;20078;-74
2021/05/11 16:05:35;;;;;;;7.15;4.10;;;15.60;99.90;;;;;;5057747;28;20397;-74
2021/05/11 16:08:09;;;;;;;6.28;4.10;;;15.60;99.90;;;;;;5057048;28;20031;-74
2021/05/11 16:10:36;;;;;;;5.50;3.92;;;15.60;99.90;;;;;;5057548;28;20052;-74
2021/05/11 16:13:05;;;;;;;6.03;4.53;;;15.60;99.90;;;;;;5056274;28;20032;-74
2021/05/11 16:15:33;;;;;;;6.35;4.10;;;15.60;99.90;;;;;;5056554;28;20083;-74
2021/05/11 16:18:03;;;;;;;6.45;4.95;;;15.60;99.90;;;;;;5059505;28;20021;-75
2021/05/11 16:20:34;;;;;;;5.22;3.50;;;15.60;99.90;;;;;;5060117;28;20096;-74
2021/05/11 16:23:01;;;;;;;7.22;3.78;;;15.60;99.90;;;;;;5059597;28;20064;-74
2021/05/11 16:25:30;;;;;;;4.70;3.50;;;15.60;99.90;;;;;;5058696;28;20029;-74
2021/05/11 16:28:03;;;;;;;9.38;4.70;;;15.60;99.90;;;;;;5059727;28;20325;-74
2021/05/11 16:30:32;;;;;;;6.20;4.13;;;15.60;99.90;;;;;;5060498;28;20025;-74
2021/05/11 16:33:00;;;;;;;5.18;4.40;;;15.50;99.90;;;;;;5060449;28;20017;-74
2021/05/11 16:35:27;;;;;;;5.63;4.07;;;15.60;99.90;;;;;;5061038;28;20021;-74
2021/05/11 16:37:55;;;;;;;6.75;4.28;;;15.50;99.90;;;;;;5059315;28;20033;-74
2021/05/11 16:40:23;;;;;;;6.28;4.18;;;15.40;99.90;;;;;;5060596;28;20025;-74
2021/05/11 16:42:55;;;;;;;6.50;4.65;;;15.30;99.90;;;;;;5060565;28;20025;-74
2021/05/11 16:45:25;;;;;;;6.35;3.65;;;15.30;99.90;;;;;;5060393;28;20021;-74
2021/05/11 16:47:56;;;;;;;8.13;5.00;;;15.30;99.90;;;;;;5059271;28;20060;-74
2021/05/11 16:50:27;;;;;;;7.60;4.57;;;15.30;99.90;;;;;;5059271;28;20029;-74
2021/05/11 16:52:58;;;;;;;7.78;4.95;;;15.30;99.90;;;;;;5058255;28;20321;-74
2021/05/11 16:55:33;;;;;;;9.40;4.75;;;15.30;99.90;;;;;;5058050;28;20075;-74
2021/05/11 16:58:00;;;;;;;7.50;4.80;;;15.30;99.90;;;;;;5058078;28;20468;-74
2021/05/11 17:00:29;;;;;;;9.15;4.97;;;15.20;99.90;;;;;;5058058;28;20025;-74
2021/05/11 17:02:58;;;;;;;6.40;4.68;;;15.30;99.90;;;;;;5059071;28;20096;-74